Time;durP1;ratioP1;P1;durP2;ratioP2;P2;SDS_P1;SDS_P2;PMS_P1;PMS_P2;Temp;Humidity;BMP_temperature;BMP_pressure;BME280_temperature;BME280_humidity;BME280_pressure;Samples;Min_cycle;Max_cycle;Signal;HPM_P1;HPM_P2
2023/06/18 00:01:12;;;;;;;6.68;4.18;;;;;;;18.46;53.00;99584.16;7696549;32;40090;-81
2023/06/18 00:05:28;;;;;;;7.60;4.05;;;;;;;18.26;53.66;99590.37;7684591;32;41192;-81
2023/06/18 00:09:45;;;;;;;7.45;4.45;;;;;;;18.14;53.85;99588.28;7684483;32;38484;-81
2023/06/18 00:14:01;;;;;;;10.02;4.72;;;;;;;18.39;53.44;99573.63;7684537;32;37802;-81
2023/06/18 00:18:18;;;;;;;8.23;4.37;;;;;;;18.09;54.57;99581.00;7684380;32;39464;-81
2023/06/18 00:22:38;;;;;;;6.62;4.05;;;;;;;18.18;54.40;99572.72;7670790;32;41121;-82
2023/06/18 00:26:54;;;;;;;7.93;4.43;;;;;;;18.04;54.79;99577.59;7684233;32;37902;-82
2023/06/18 00:31:11;;;;;;;9.55;4.57;;;;;;;18.01;54.67;99582.63;7682788;32;36918;-81
2023/06/18 00:35:28;;;;;;;8.57;4.10;;;;;;;17.99;54.51;99579.38;7684279;32;39390;-81
2023/06/18 00:39:44;;;;;;;7.32;4.65;;;;;;;18.01;54.96;99579.06;7683944;32;40040;-82
2023/06/18 00:44:00;;;;;;;7.72;4.57;;;;;;;17.86;55.69;99565.75;7683836;32;38558;-82
2023/06/18 00:48:17;;;;;;;6.93;4.32;;;;;;;17.88;56.03;99575.34;7683904;32;37338;-82
2023/06/18 00:52:36;;;;;;;6.95;3.92;;;;;;;17.95;55.61;99572.09;7683813;32;39317;-81
2023/06/18 00:56:52;;;;;;;7.57;3.97;;;;;;;17.82;56.05;99571.09;7707076;32;41390;-82
2023/06/18 01:01:10;;;;;;;8.70;3.83;;;;;;;17.89;55.68;99571.44;7710201;32;37943;-82
2023/06/18 01:05:29;;;;;;;6.40;4.30;;;;;;;17.84;55.67;99572.38;7696732;32;36906;-81
2023/06/18 01:09:52;;;;;;;8.75;4.22;;;;;;;17.82;55.86;99576.63;7710171;32;39486;-82
2023/06/18 01:14:09;;;;;;;9.13;4.10;;;;;;;17.71;56.17;99576.13;7709993;32;40870;-81
2023/06/18 01:18:26;;;;;;;8.07;4.50;;;;;;;17.76;56.11;99575.97;7709749;32;38014;-81
2023/06/18 01:22:51;;;;;;;7.60;4.32;;;;;;;17.78;56.86;99581.16;7709910;32;38245;-81
2023/06/18 01:27:08;;;;;;;7.62;4.60;;;;;;;17.61;57.16;99577.28;7709553;32;39431;-81
2023/06/18 01:31:24;;;;;;;8.10;4.32;;;;;;;17.60;57.00;99578.41;7709422;32;39624;-81
2023/06/18 01:35:44;;;;;;;7.68;4.47;;;;;;;17.57;56.95;99581.78;7709468;32;38457;-81
2023/06/18 01:40:00;;;;;;;7.25;4.35;;;;;;;17.44;57.17;99593.81;7709555;32;36890;-81
2023/06/18 01:44:19;;;;;;;9.60;4.57;;;;;;;17.45;56.85;99587.97;7712954;32;39519;-81
2023/06/18 01:48:43;;;;;;;7.65;4.80;;;;;;;17.55;56.36;99595.09;7711248;32;40989;-81
2023/06/18 01:53:02;;;;;;;6.32;3.83;;;;;;;17.44;56.12;99605.63;7699799;32;38723;-81
2023/06/18 01:57:18;;;;;;;7.62;4.55;;;;;;;17.47;55.89;99604.16;7699334;32;36918;-81
2023/06/18 02:01:35;;;;;;;9.95;4.03;;;;;;;17.41;55.79;99599.94;7699086;32;40096;-81
2023/06/18 02:05:51;;;;;;;6.90;3.90;;;;;;;17.18;56.52;99605.59;7710854;32;39901;-81
2023/06/18 02:10:08;;;;;;;8.48;4.57;;;;;;;17.25;56.11;99603.16;7672327;32;37948;-81
2023/06/18 02:14:24;;;;;;;8.50;4.35;;;;;;;17.18;56.17;99600.06;7685968;32;37011;-80
2023/06/18 02:18:41;;;;;;;6.45;4.18;;;;;;;17.37;55.57;99599.00;7685818;32;40125;-81
2023/06/18 02:22:58;;;;;;;7.18;4.28;;;;;;;17.17;56.04;99603.16;7685736;32;40986;-81
2023/06/18 02:27:15;;;;;;;7.82;4.60;;;;;;;17.20;55.85;99606.06;7685713;32;38598;-81
2023/06/18 02:31:31;;;;;;;7.55;4.50;;;;;;;17.10;56.13;99603.63;7685281;32;37823;-81
2023/06/18 02:35:48;;;;;;;6.90;4.07;;;;;;;16.95;56.61;99615.06;7685715;32;39391;-81
2023/06/18 02:40:05;;;;;;;10.23;4.22;;;;;;;17.12;55.87;99612.37;7685523;32;40556;-81
2023/06/18 02:44:22;;;;;;;8.57;4.37;;;;;;;16.92;56.55;99621.19;7701770;32;37880;-81
2023/06/18 02:48:39;;;;;;;9.15;4.43;;;;;;;16.65;57.80;99623.81;7712187;32;37666;-81
2023/06/18 02:52:55;;;;;;;8.02;4.47;;;;;;;16.69;57.95;99629.50;7711120;32;39392;-80
2023/06/18 02:57:12;;;;;;;9.38;4.60;;;;;;;16.64;57.94;99633.22;7712063;32;40265;-81
2023/06/18 03:01:31;;;;;;;10.88;4.60;;;;;;;16.70;57.48;99626.44;7711951;32;37553;-80
2023/06/18 03:05:48;;;;;;;10.45;4.78;;;;;;;16.76;57.19;99629.84;7710577;32;37021;-81
2023/06/18 03:10:05;;;;;;;8.88;4.45;;;;;;;16.75;57.23;99639.25;7711895;32;39953;-80
2023/06/18 03:14:22;;;;;;;7.30;4.35;;;;;;;16.84;56.94;99631.88;7711782;32;40001;-80
2023/06/18 03:18:38;;;;;;;7.28;4.62;;;;;;;16.93;56.63;99622.84;7711785;32;37939;-81
2023/06/18 03:22:55;;;;;;;9.38;4.68;;;;;;;16.74;57.32;99629.38;7711727;32;37643;-81
2023/06/18 03:27:11;;;;;;;8.48;4.00;;;;;;;16.99;56.78;99630.66;7711659;32;40122;-81
2023/06/18 03:31:28;;;;;;;9.77;4.37;;;;;;;16.89;57.01;99634.47;7711373;32;40846;-81
2023/06/18 03:35:46;;;;;;;6.72;4.30;;;;;;;16.73;57.70;99635.19;7711471;32;37625;-81
2023/06/18 03:40:04;;;;;;;11.40;4.57;;;;;;;16.75;57.84;99633.75;7710200;32;37438;-81
2023/06/18 03:44:21;;;;;;;6.70;4.28;;;;;;;16.75;57.90;99639.25;7697948;32;40070;-81
2023/06/18 03:48:38;;;;;;;7.32;4.12;;;;;;;16.78;57.92;99641.38;7711477;32;39915;-81
2023/06/18 03:52:54;;;;;;;8.20;4.53;;;;;;;16.71;58.32;99643.75;7711350;32;38637;-81
2023/06/18 03:57:12;;;;;;;7.62;4.55;;;;;;;16.68;58.60;99652.66;7711375;32;36890;-81
2023/06/18 04:01:28;;;;;;;8.25;4.28;;;;;;;16.79;58.35;99647.69;7711302;32;40345;-82
2023/06/18 04:05:45;;;;;;;8.15;4.80;;;;;;;16.76;58.83;99657.37;7710613;32;40000;-80
2023/06/18 04:10:01;;;;;;;8.00;4.20;;;;;;;17.01;58.13;99655.91;7684576;32;38667;-82
2023/06/18 04:14:18;;;;;;;7.82;4.50;;;;;;;16.94;58.44;99661.06;7684489;32;37918;-81
2023/06/18 04:18:34;;;;;;;8.77;4.70;;;;;;;17.09;58.17;99662.56;7684538;32;39365;-82
2023/06/18 04:22:50;;;;;;;8.27;4.62;;;;;;;17.13;58.15;99660.03;7684279;32;39643;-81
2023/06/18 04:27:07;;;;;;;9.15;4.80;;;;;;;17.15;58.26;99666.00;7684296;32;37981;-81
2023/06/18 04:31:24;;;;;;;8.43;4.65;;;;;;;17.12;58.64;99664.69;7684187;32;37041;-81
2023/06/18 04:35:40;;;;;;;9.50;4.62;;;;;;;17.29;58.35;99663.94;7684211;32;39317;-81
2023/06/18 04:39:57;;;;;;;9.07;4.72;;;;;;;17.36;58.14;99656.00;7684064;32;40623;-81
2023/06/18 04:44:13;;;;;;;9.73;4.72;;;;;;;17.41;58.29;99664.13;7684062;32;37859;-82
2023/06/18 04:48:30;;;;;;;7.87;4.75;;;;;;;17.45;58.33;99667.06;7683933;32;37108;-81
2023/06/18 04:52:46;;;;;;;12.25;5.00;;;;;;;17.61;57.96;99671.00;7683935;32;40146;-81
2023/06/18 04:57:02;;;;;;;9.60;5.30;;;;;;;17.68;57.89;99676.03;7683718;32;39812;-82
2023/06/18 05:01:20;;;;;;;8.80;5.25;;;;;;;17.96;57.30;99686.78;7684007;32;37897;-81
2023/06/18 05:05:36;;;;;;;8.20;5.03;;;;;;;17.99;57.05;99686.97;7683553;32;38109;-81
2023/06/18 05:09:53;;;;;;;9.32;4.95;;;;;;;18.17;57.07;99689.72;7683558;32;39174;-81
2023/06/18 05:14:10;;;;;;;11.88;5.03;;;;;;;18.32;56.91;99696.69;7683297;32;39954;-82
2023/06/18 05:18:26;;;;;;;8.60;5.07;;;;;;;18.46;56.89;99702.84;7686020;32;39027;-82
2023/06/18 05:22:42;;;;;;;10.20;5.87;;;;;;;18.60;56.77;99702.66;7686396;32;37754;-82
2023/06/18 05:26:59;;;;;;;8.73;5.37;;;;;;;18.94;55.92;99712.03;7686485;32;39419;-81
2023/06/18 05:31:15;;;;;;;10.75;5.55;;;;;;;19.11;55.37;99702.88;7686212;32;39942;-81
2023/06/18 05:35:32;;;;;;;10.38;5.32;;;;;;;19.07;54.89;99707.41;7686062;32;37931;-77
2023/06/18 05:39:51;;;;;;;11.25;5.70;;;;;;;19.13;54.73;99723.50;7686206;32;37275;-78
2023/06/18 05:44:07;;;;;;;8.88;5.07;;;;;;;19.57;54.35;99719.72;7705271;32;39473;-77
2023/06/18 05:48:24;;;;;;;10.18;5.45;;;;;;;19.76;53.89;99727.59;7712973;32;40006;-79
2023/06/18 05:52:41;;;;;;;14.90;5.82;;;;;;;20.00;52.29;99733.28;7712825;32;37965;-79
2023/06/18 05:56:57;;;;;;;10.90;5.70;;;;;;;19.96;51.89;99731.56;7712279;32;37677;-83
2023/06/18 06:01:14;;;;;;;8.65;5.68;;;;;;;20.34;51.54;99725.06;7712832;32;39336;-80
2023/06/18 06:05:30;;;;;;;11.82;4.65;;;;;;;20.36;50.33;99722.75;7712783;32;40869;-80
2023/06/18 06:09:47;;;;;;;10.30;5.53;;;;;;;20.45;50.87;99715.19;7706143;32;37707;-79
2023/06/18 06:14:03;;;;;;;10.23;5.47;;;;;;;20.72;49.21;99713.00;7707156;32;38091;-79
2023/06/18 06:18:19;;;;;;;8.18;4.60;;;;;;;20.53;49.17;99728.13;7712588;32;39314;-76
2023/06/18 06:22:36;;;;;;;8.93;5.10;;;;;;;20.95;49.13;99718.94;7712476;32;40842;-75
2023/06/18 06:26:52;;;;;;;7.37;4.45;;;;;;;20.80;48.44;99725.97;7712385;32;38741;-75
2023/06/18 06:31:08;;;;;;;7.35;4.47;;;;;;;20.92;48.34;99720.44;7706624;32;183936;-75
2023/06/18 06:35:27;;;;;;;6.85;4.15;;;;;;;21.24;47.71;99723.47;7711796;32;39459;-76
2023/06/18 06:39:44;;;;;;;6.87;4.30;;;;;;;21.05;47.86;99724.03;7703024;32;39983;-75
2023/06/18 06:44:00;;;;;;;10.48;5.20;;;;;;;20.88;49.21;99727.81;7703763;32;38100;-76
2023/06/18 06:48:17;;;;;;;8.93;4.20;;;;;;;20.40;49.76;99737.53;7685675;32;36936;-76
2023/06/18 06:52:33;;;;;;;9.18;4.40;;;;;;;20.30;49.58;99737.94;7691508;32;39542;-78
2023/06/18 06:56:49;;;;;;;7.85;4.25;;;;;;;20.58;50.27;99732.66;7711004;32;40807;-79
2023/06/18 07:01:06;;;;;;;8.15;4.70;;;;;;;21.04;49.92;99730.75;7712053;32;37971;-77
2023/06/18 07:05:22;;;;;;;8.02;4.15;;;;;;;21.14;49.56;99729.47;7689675;32;37040;-79
2023/06/18 07:09:39;;;;;;;10.35;4.47;;;;;;;21.48;47.92;99733.00;7685284;32;39987;-75
2023/06/18 07:13:55;;;;;;;8.98;4.07;;;;;;;21.75;46.69;99732.28;7697890;32;41015;-79
2023/06/18 07:18:11;;;;;;;7.20;4.05;;;;;;;21.32;48.27;99728.13;7685497;32;38637;-78
2023/06/18 07:22:28;;;;;;;8.93;4.32;;;;;;;21.14;48.99;99735.81;7685138;32;37122;-78
2023/06/18 07:26:44;;;;;;;6.60;4.03;;;;;;;21.68;48.15;99714.59;7687443;32;40147;-74
2023/06/18 07:31:02;;;;;;;10.93;4.37;;;;;;;21.83;46.38;99707.53;7698566;32;40543;-77
2023/06/18 07:35:18;;;;;;;7.80;4.10;;;;;;;22.28;46.61;99714.84;7714367;32;37599;-78
2023/06/18 07:39:34;;;;;;;9.20;4.20;;;;;;;21.98;46.92;99712.37;7726138;32;36752;-76
2023/06/18 07:43:51;;;;;;;6.18;3.92;;;;;;;22.01;46.64;99708.91;7726094;32;39519;-77
2023/06/18 07:48:08;;;;;;;7.05;3.92;;;;;;;21.82;45.77;99703.13;7717156;32;40786;-79
2023/06/18 07:52:24;;;;;;;8.95;4.30;;;;;;;22.58;45.55;99701.41;7725397;32;37921;-81
2023/06/18 07:56:40;;;;;;;6.95;3.83;;;;;;;22.75;46.22;99696.69;7710898;32;37825;-81
2023/06/18 08:00:57;;;;;;;6.00;3.67;;;;;;;22.78;43.93;99690.44;7715362;32;39517;-81
2023/06/18 08:05:13;;;;;;;6.20;3.72;;;;;;;23.03;43.22;99691.09;7711223;32;39915;-80
2023/06/18 08:09:30;;;;;;;7.15;3.12;;;;;;;22.64;42.51;99699.19;7711381;32;38016;-80
2023/06/18 08:13:46;;;;;;;6.05;3.30;;;;;;;23.19;41.46;99697.47;7711368;32;37785;-80
2023/06/18 08:18:03;;;;;;;7.53;3.35;;;;;;;23.23;40.97;99698.38;7711317;32;39123;-79
2023/06/18 08:22:20;;;;;;;5.97;3.45;;;;;;;23.39;41.66;99686.44;7711729;32;40013;-80
2023/06/18 08:26:36;;;;;;;10.20;3.10;;;;;;;23.32;41.56;99697.38;7711033;32;37647;-80
2023/06/18 08:30:53;;;;;;;7.40;3.53;;;;;;;23.55;42.15;99687.19;7697059;32;37438;-81
2023/06/18 08:35:10;;;;;;;9.18;3.12;;;;;;;23.50;40.43;99695.03;7697115;32;39282;-81
2023/06/18 08:39:27;;;;;;;4.28;2.75;;;;;;;23.81;40.77;99688.63;7710865;32;39732;-81
2023/06/18 08:43:45;;;;;;;5.50;3.12;;;;;;;23.40;39.18;99685.25;7712414;32;37868;-81
2023/06/18 08:48:05;;;;;;;5.68;3.03;;;;;;;24.23;40.03;99682.31;7717866;32;36971;-81
2023/06/18 08:52:35;;;;;;;5.73;3.03;;;;;;;24.55;37.95;99687.78;7697497;32;40065;-81
2023/06/18 08:56:58;;;;;;;5.50;2.90;;;;;;;24.83;37.80;99683.91;7710493;32;40055;-81
2023/06/18 09:01:15;;;;;;;4.87;2.60;;;;;;;24.92;37.78;99684.44;7710175;32;37555;-80
2023/06/18 09:05:32;;;;;;;5.25;2.75;;;;;;;24.71;36.54;99677.31;7696264;32;37080;-81
2023/06/18 09:09:48;;;;;;;6.45;3.37;;;;;;;24.68;38.27;99680.03;7709932;32;39530;-81
2023/06/18 09:14:06;;;;;;;5.15;2.72;;;;;;;24.78;37.23;99675.84;7699150;32;40642;-79
2023/06/18 09:18:24;;;;;;;9.00;3.12;;;;;;;24.99;36.81;99673.44;7709408;32;37861;-80
2023/06/18 09:22:48;;;;;;;6.47;2.55;;;;;;;25.48;36.76;99678.25;7695692;32;37299;-81
2023/06/18 09:27:06;;;;;;;5.82;3.22;;;;;;;25.77;38.30;99684.25;7704886;32;39363;-77
2023/06/18 09:31:25;;;;;;;4.32;2.72;;;;;;;25.55;35.47;99682.31;7706695;32;40868;-76
2023/06/18 09:35:43;;;;;;;9.90;3.55;;;;;;;24.89;37.09;99680.44;7706175;32;39527;-76
2023/06/18 09:40:08;;;;;;;5.32;3.22;;;;;;;25.06;36.32;99679.16;7692657;32;37919;-76
2023/06/18 09:44:25;;;;;;;7.72;3.12;;;;;;;25.18;38.05;99680.09;7703179;32;39423;-77
2023/06/18 09:48:43;;;;;;;3.45;2.72;;;;;;;25.43;37.84;99681.34;7691777;32;39926;-78
2023/06/18 09:53:00;;;;;;;6.37;3.58;;;;;;;25.62;37.15;99676.84;7713776;32;38012;-78
2023/06/18 09:57:16;;;;;;;6.55;2.67;;;;;;;26.13;35.78;99668.00;7705270;32;37201;-83
2023/06/18 10:01:46;;;;;;;10.00;3.40;;;;;;;25.86;34.22;99665.22;7694757;32;40211;-77
2023/06/18 10:06:16;;;;;;;8.32;2.80;;;;;;;25.93;34.20;99663.72;7717139;32;40774;-77
2023/06/18 10:10:35;;;;;;;4.70;3.10;;;;;;;26.22;34.94;99662.09;7711899;32;38058;-79
2023/06/18 10:14:56;;;;;;;5.85;3.10;;;;;;;26.58;35.24;99663.31;7710766;32;37886;-78
2023/06/18 10:19:32;;;;;;;6.10;3.22;;;;;;;27.20;31.85;99658.28;7718369;32;39384;-77
2023/06/18 10:23:53;;;;;;;5.18;3.15;;;;;;;26.70;33.37;99661.44;7698526;32;39645;-79
2023/06/18 10:28:10;;;;;;;5.82;3.30;;;;;;;26.86;32.31;99661.22;7698132;32;38686;-77
2023/06/18 10:32:29;;;;;;;6.03;3.00;;;;;;;27.42;34.35;99656.47;7712758;32;37047;-76
2023/06/18 10:36:46;;;;;;;6.70;3.28;;;;;;;27.87;29.91;99659.94;7719167;32;40204;-76
2023/06/18 10:41:13;;;;;;;4.85;3.15;;;;;;;27.46;30.02;99658.13;7710278;32;39753;-77
2023/06/18 10:45:29;;;;;;;7.15;3.25;;;;;;;28.41;31.91;99654.59;7711694;32;38670;-75
2023/06/18 10:50:07;;;;;;;6.62;3.20;;;;;;;28.36;30.82;99652.97;7714470;32;37532;-77
2023/06/18 10:54:31;;;;;;;5.62;3.17;;;;;;;28.16;31.72;99648.88;7717630;32;39318;-86
2023/06/18 10:58:51;;;;;;;5.70;3.65;;;;;;;28.00;30.13;99652.81;7712054;32;40933;-88
2023/06/18 11:03:14;;;;;;;5.82;3.35;;;;;;;28.00;30.04;99652.81;7712043;32;38005;-85
2023/06/18 11:07:31;;;;;;;7.00;3.37;;;;;;;28.16;31.53;99658.09;7698640;32;36748;-86
2023/06/18 11:11:50;;;;;;;6.20;3.15;;;;;;;28.91;31.35;99642.69;7699140;32;39323;-88
2023/06/18 11:16:08;;;;;;;13.45;3.20;;;;;;;28.87;30.30;99639.84;7703827;32;39996;-85
2023/06/18 11:20:26;;;;;;;3.83;2.78;;;;;;;28.73;32.77;99637.03;7711921;32;37820;-83
2023/06/18 11:24:43;;;;;;;5.35;3.22;;;;;;;29.04;31.19;99632.63;7712136;32;37146;-87
2023/06/18 11:29:01;;;;;;;6.07;3.33;;;;;;;28.87;29.49;99630.63;7712370;32;39399;-88
2023/06/18 11:33:26;;;;;;;4.87;3.37;;;;;;;28.62;29.68;99637.03;7712095;32;40807;-87
2023/06/18 11:37:45;;;;;;;4.43;3.10;;;;;;;29.05;30.25;99623.03;7712138;32;37898;-87
2023/06/18 11:42:21;;;;;;;5.65;2.97;;;;;;;28.96;29.08;99617.00;7712176;32;39221;-87
2023/06/18 11:46:38;;;;;;;3.90;2.87;;;;;;;28.56;30.21;99621.78;7711784;32;39521;-79
2023/06/18 11:50:54;;;;;;;6.25;3.00;;;;;;;28.22;30.36;99616.50;7711447;32;40029;-85
2023/06/18 11:55:11;;;;;;;7.65;3.08;;;;;;;27.92;30.58;99623.16;7697092;32;37973;-82
2023/06/18 11:59:28;;;;;;;9.65;3.50;;;;;;;27.60;31.03;99620.22;7695432;32;37834;-79
2023/06/18 12:03:45;;;;;;;6.75;3.80;;;;;;;27.24;34.22;99612.34;7688463;32;39593;-77
2023/06/18 12:08:12;;;;;;;9.02;3.58;;;;;;;28.07;34.06;99608.03;7707078;32;40027;-77
2023/06/18 12:12:51;;;;;;;8.50;3.50;;;;;;;28.19;32.56;99603.25;7701829;32;38861;-80
2023/06/18 12:17:24;;;;;;;5.78;3.40;;;;;;;28.67;34.08;99608.59;7701742;32;37255;-80
2023/06/18 12:21:40;;;;;;;6.10;3.28;;;;;;;28.77;29.31;99593.78;7694557;32;39346;-78
2023/06/18 12:25:59;;;;;;;5.70;3.37;;;;;;;28.96;29.59;99594.56;7712546;32;40188;-78
2023/06/18 12:30:17;;;;;;;5.85;3.58;;;;;;;28.43;29.79;99610.91;7723656;32;38000;-82
2023/06/18 12:34:40;;;;;;;6.43;3.60;;;;;;;28.50;29.00;99606.53;7733396;32;37784;-81
2023/06/18 12:39:10;;;;;;;6.53;3.60;;;;;;;27.56;30.63;99600.56;7710795;32;39354;-82
2023/06/18 12:43:26;;;;;;;4.55;3.30;;;;;;;27.61;30.84;99588.19;7709756;32;40937;-76
2023/06/18 12:47:47;;;;;;;7.90;3.47;;;;;;;28.06;29.62;99600.84;7710370;32;37669;-78
2023/06/18 12:52:15;;;;;;;6.37;3.50;;;;;;;27.91;30.21;99587.94;7707392;32;37165;-82
2023/06/18 12:56:33;;;;;;;9.40;3.75;;;;;;;27.97;30.95;99591.19;7694255;32;40078;-81
2023/06/18 13:01:00;;;;;;;6.85;3.55;;;;;;;29.20;29.79;99582.53;7706792;32;40008;-82
2023/06/18 13:05:24;;;;;;;5.35;3.60;;;;;;;28.34;27.59;99584.47;7690793;32;37876;-82
2023/06/18 13:09:41;;;;;;;6.03;3.85;;;;;;;28.01;28.89;99586.38;7707593;32;37724;-81
2023/06/18 13:13:57;;;;;;;6.30;3.50;;;;;;;28.48;28.71;99582.50;7708648;32;39406;-81
2023/06/18 13:18:15;;;;;;;8.95;3.55;;;;;;;28.72;29.39;99582.13;7709888;32;39997;-81
2023/06/18 13:22:31;;;;;;;6.93;3.22;;;;;;;29.22;28.87;99576.53;7696038;32;37875;-81
2023/06/18 13:26:48;;;;;;;5.53;3.37;;;;;;;28.77;26.84;99570.50;7709821;32;37074;-81
2023/06/18 13:31:04;;;;;;;7.05;3.40;;;;;;;29.01;26.87;99574.50;7709546;32;39478;-81
2023/06/18 13:35:20;;;;;;;8.27;3.40;;;;;;;29.00;28.34;99578.53;7709617;32;40821;-81
2023/06/18 13:39:37;;;;;;;5.20;3.20;;;;;;;29.38;25.96;99574.06;7712684;32;37882;-81
2023/06/18 13:43:54;;;;;;;5.72;3.45;;;;;;;28.76;28.60;99568.94;7731559;32;37295;-81
2023/06/18 13:48:12;;;;;;;4.55;3.30;;;;;;;29.73;25.06;99563.12;7739731;32;39306;-79
2023/06/18 13:52:29;;;;;;;6.90;2.70;;;;;;;29.16;25.72;99569.72;7739895;32;39943;-79
2023/06/18 13:56:45;;;;;;;4.47;3.00;;;;;;;29.24;27.09;99570.50;7739645;32;38739;-79
2023/06/18 14:01:01;;;;;;;5.87;3.47;;;;;;;29.86;25.96;99560.69;7704987;32;37346;-84
2023/06/18 14:05:18;;;;;;;5.10;2.85;;;;;;;29.43;27.08;99577.69;7720803;32;39424;-83
2023/06/18 14:09:35;;;;;;;6.18;3.37;;;;;;;29.59;26.94;99570.38;7712324;32;39685;-84
2023/06/18 14:13:52;;;;;;;5.15;2.83;;;;;;;30.34;25.82;99563.62;7698939;32;38001;-79
2023/06/18 14:18:09;;;;;;;5.57;3.08;;;;;;;31.02;26.00;99562.31;7712817;32;37939;-82
2023/06/18 14:22:25;;;;;;;5.80;3.28;;;;;;;31.08;23.61;99557.84;7712454;32;39333;-81
2023/06/18 14:26:42;;;;;;;6.43;3.58;;;;;;;30.96;23.29;99558.37;7712524;32;40757;-79
2023/06/18 14:30:59;;;;;;;5.18;3.15;;;;;;;31.44;24.32;99557.47;7711937;32;37941;-85
2023/06/18 14:35:16;;;;;;;4.78;3.10;;;;;;;30.70;24.72;99557.75;7712435;32;37165;-84
2023/06/18 14:39:32;;;;;;;5.70;3.05;;;;;;;30.71;24.40;99564.16;7712440;32;40067;-81
2023/06/18 14:43:48;;;;;;;5.97;3.17;;;;;;;30.85;25.14;99557.63;7712312;32;40843;-80
2023/06/18 14:48:05;;;;;;;5.80;3.03;;;;;;;30.87;24.12;99566.44;7711267;32;37799;-84
2023/06/18 14:52:22;;;;;;;5.30;3.33;;;;;;;31.48;24.90;99562.22;7712296;32;37772;-84
2023/06/18 14:56:43;;;;;;;5.12;3.15;;;;;;;30.92;24.45;99557.56;7712246;32;39287;-85
2023/06/18 15:01:00;;;;;;;5.43;3.05;;;;;;;30.87;24.21;99560.81;7712108;32;40715;-85
2023/06/18 15:05:16;;;;;;;6.78;3.28;;;;;;;30.23;25.45;99562.09;7711816;32;38696;-85
2023/06/18 15:09:32;;;;;;;8.77;3.10;;;;;;;30.24;24.40;99561.69;7711838;32;38621;-83
2023/06/18 15:13:48;;;;;;;4.55;3.10;;;;;;;30.08;25.21;99555.75;7711958;32;39971;-83
2023/06/18 15:18:05;;;;;;;4.53;3.12;;;;;;;30.78;26.05;99563.31;7711758;32;40135;-82
2023/06/18 15:22:25;;;;;;;9.18;3.17;;;;;;;30.41;24.13;99553.53;7710365;32;37956;-79
2023/06/18 15:26:41;;;;;;;3.55;2.65;;;;;;;30.60;24.41;99552.22;7705045;32;37046;-80
2023/06/18 15:30:59;;;;;;;4.62;2.97;;;;;;;30.60;24.59;99557.84;7704503;32;39360;-83
2023/06/18 15:35:18;;;;;;;5.85;3.30;;;;;;;30.29;23.13;99554.84;7707134;32;39987;-80
2023/06/18 15:39:35;;;;;;;4.07;2.78;;;;;;;30.05;24.85;99546.13;7704741;32;38430;-81
2023/06/18 15:43:53;;;;;;;5.47;3.20;;;;;;;30.22;25.40;99544.44;7708386;32;37106;-82
2023/06/18 15:48:15;;;;;;;7.20;2.95;;;;;;;30.32;24.32;99548.34;7703857;32;38251;-82
2023/06/18 15:52:32;;;;;;;5.50;3.30;;;;;;;30.57;23.77;99541.78;7703003;32;40685;-81
2023/06/18 15:56:53;;;;;;;6.97;3.33;;;;;;;30.65;24.61;99543.31;7703613;32;38819;-79
2023/06/18 16:01:09;;;;;;;7.60;3.25;;;;;;;30.08;25.46;99545.31;7701350;32;37014;-80
2023/06/18 16:05:26;;;;;;;4.35;2.95;;;;;;;30.01;26.17;99551.00;7704331;32;39471;-78
2023/06/18 16:09:43;;;;;;;4.78;2.70;;;;;;;29.81;25.22;99555.50;7709624;32;39869;-77
2023/06/18 16:13:59;;;;;;;5.25;2.92;;;;;;;30.19;23.97;99559.31;7709005;32;38703;-77
2023/06/18 16:18:17;;;;;;;6.40;3.67;;;;;;;29.69;24.86;99546.28;7699647;32;37078;-76
2023/06/18 16:22:34;;;;;;;6.87;2.90;;;;;;;29.67;25.77;99550.72;7692335;32;37781;-76
2023/06/18 16:26:50;;;;;;;5.25;3.03;;;;;;;28.92;27.43;99548.88;7702896;32;40016;-76
2023/06/18 16:31:06;;;;;;;5.70;3.33;;;;;;;29.44;27.06;99557.59;7705475;32;38524;-77
2023/06/18 16:35:23;;;;;;;5.07;3.28;;;;;;;29.50;25.94;99555.19;7703282;32;37488;-77
2023/06/18 16:39:40;;;;;;;5.82;3.15;;;;;;;29.64;25.76;99549.50;7705716;32;39122;-77
2023/06/18 16:43:57;;;;;;;7.78;3.28;;;;;;;29.39;26.03;99550.41;7697142;32;40664;-77
2023/06/18 16:48:13;;;;;;;11.27;3.30;;;;;;;29.67;26.38;99547.91;7683937;32;39115;-77
2023/06/18 16:52:31;;;;;;;5.37;3.03;;;;;;;29.49;25.20;99548.75;7692496;32;38003;-81
2023/06/18 16:56:48;;;;;;;5.85;3.45;;;;;;;29.38;27.16;99551.59;7700705;32;39506;-83
2023/06/18 17:01:05;;;;;;;6.35;3.47;;;;;;;29.07;27.48;99558.87;7707723;32;39460;-85
2023/06/18 17:05:23;;;;;;;5.45;3.42;;;;;;;29.26;27.11;99563.28;7694399;32;37837;-86
2023/06/18 17:09:41;;;;;;;8.75;3.45;;;;;;;29.00;28.37;99565.28;7708333;32;37055;-84
2023/06/18 17:13:59;;;;;;;6.30;3.60;;;;;;;29.00;27.10;99567.31;7706930;32;39422;-83
2023/06/18 17:18:16;;;;;;;6.28;3.58;;;;;;;29.03;26.90;99572.13;7708038;32;39436;-83
2023/06/18 17:22:35;;;;;;;7.32;3.30;;;;;;;28.59;27.80;99574.13;7707426;32;37925;-83
2023/06/18 17:26:53;;;;;;;5.72;3.75;;;;;;;28.77;28.48;99576.94;7708061;32;36941;-84
2023/06/18 17:31:09;;;;;;;6.18;3.42;;;;;;;28.78;28.55;99578.53;7705153;32;39121;-84
2023/06/18 17:35:25;;;;;;;6.07;3.40;;;;;;;28.87;28.73;99571.72;7707648;32;39941;-83
2023/06/18 17:39:42;;;;;;;5.37;3.15;;;;;;;28.83;29.06;99575.31;7707151;32;38706;-84
2023/06/18 17:43:58;;;;;;;6.78;3.58;;;;;;;28.55;30.05;99578.12;7703766;32;37110;-81
2023/06/18 17:48:15;;;;;;;10.57;3.30;;;;;;;28.67;30.12;99574.16;7703545;32;39782;-81
2023/06/18 17:52:31;;;;;;;6.72;3.78;;;;;;;28.65;29.83;99569.72;7698436;32;38602;-81
2023/06/18 17:56:47;;;;;;;9.00;3.62;;;;;;;28.52;30.81;99570.50;7704243;32;36416;-81
2023/06/18 18:01:04;;;;;;;10.15;3.83;;;;;;;28.29;31.71;99569.66;7706713;32;36756;-81
2023/06/18 18:05:20;;;;;;;7.03;3.50;;;;;;;28.21;31.89;99567.22;7706084;32;40511;-88
2023/06/18 18:09:37;;;;;;;10.10;3.17;;;;;;;28.01;32.17;99569.56;7707272;32;40170;-87
2023/06/18 18:13:54;;;;;;;8.18;3.92;;;;;;;27.84;32.39;99579.50;7705873;32;38952;-86
2023/06/18 18:18:10;;;;;;;8.30;3.78;;;;;;;27.73;31.79;99582.25;7707968;32;36988;-83
2023/06/18 18:22:27;;;;;;;10.10;6.10;;;;;;;27.59;32.63;99583.00;7709181;32;39450;-82
2023/06/18 18:26:43;;;;;;;9.75;4.80;;;;;;;27.28;33.91;99590.81;7712519;32;39944;-84
2023/06/18 18:31:04;;;;;;;9.82;4.30;;;;;;;27.20;34.77;99593.94;7711610;32;37940;-83
2023/06/18 18:35:21;;;;;;;8.70;4.28;;;;;;;26.91;35.39;99599.31;7712587;32;36836;-83
2023/06/18 18:39:38;;;;;;;8.05;3.85;;;;;;;26.68;35.96;99602.31;7712130;32;39351;-83
2023/06/18 18:43:55;;;;;;;7.35;4.03;;;;;;;26.24;36.96;99612.22;7710610;32;40011;-84
2023/06/18 18:48:12;;;;;;;11.60;5.12;;;;;;;26.18;37.26;99614.56;7712108;32;37867;-87
2023/06/18 18:52:28;;;;;;;13.00;5.85;;;;;;;26.03;37.67;99615.59;7712192;32;37054;-86
2023/06/18 18:56:45;;;;;;;10.80;4.32;;;;;;;25.86;37.76;99617.75;7711075;32;39852;-90
2023/06/18 19:01:01;;;;;;;13.93;4.90;;;;;;;25.64;38.03;99629.81;7697879;32;39898;-86
2023/06/18 19:05:18;;;;;;;8.68;4.35;;;;;;;25.47;38.20;99632.00;7693012;32;37856;-85
2023/06/18 19:09:34;;;;;;;7.05;3.97;;;;;;;25.38;37.70;99639.81;7705463;32;37905;-80
2023/06/18 19:13:56;;;;;;;6.12;3.80;;;;;;;25.24;38.43;99640.38;7689835;32;39393;-81
2023/06/18 19:18:12;;;;;;;7.03;3.75;;;;;;;24.90;39.54;99654.16;7695695;32;40802;-80
2023/06/18 19:22:31;;;;;;;7.45;3.85;;;;;;;24.91;39.29;99649.41;7704080;32;38587;-80
2023/06/18 19:26:48;;;;;;;7.65;4.30;;;;;;;24.65;39.99;99662.09;7686715;32;37401;-84
2023/06/18 19:31:04;;;;;;;6.60;3.78;;;;;;;24.57;40.13;99665.13;7711330;32;39901;-83
2023/06/18 19:35:21;;;;;;;8.30;4.35;;;;;;;24.47;40.41;99670.06;7709186;32;40625;-85
2023/06/18 19:39:38;;;;;;;9.35;4.40;;;;;;;24.24;40.70;99677.59;7709265;32;38073;-85
2023/06/18 19:43:55;;;;;;;7.60;4.25;;;;;;;24.25;40.33;99685.56;7709053;32;37055;-86
2023/06/18 19:48:12;;;;;;;6.57;3.75;;;;;;;24.13;40.59;99682.94;7707549;32;39300;-86
2023/06/18 19:52:32;;;;;;;7.10;4.28;;;;;;;24.06;41.05;99688.34;7706474;32;39703;-83
2023/06/18 19:56:48;;;;;;;10.00;4.18;;;;;;;23.86;41.12;99687.53;7708444;32;37928;-83
2023/06/18 20:01:04;;;;;;;10.15;4.30;;;;;;;23.62;42.04;99684.59;7708109;32;36860;-83
2023/06/18 20:05:21;;;;;;;5.05;3.55;;;;;;;23.55;42.16;99690.00;7693363;32;39099;-85
2023/06/18 20:09:38;;;;;;;6.28;4.12;;;;;;;23.43;42.55;99687.31;7709087;32;40081;-82